.
WxDataArchive / Data Records for 2006-01-13
2006-01-12 January 2006 2006-01-14

Data Records for Friday, 13 January 2006

Time	Temp	Chill	HIndex	Humid	Dewpt	 Wind 	HiWind	WindDir	Rain 	Barom 
-----	----	-----	------	-----	-----	------	------	-------	-----	----- 
00:00	47.3	47.3	47.3	66	36.5	2	6	225	0.00	29.683 
00:05	47.4	47.4	47.4	66	36.6	2	5	248	0.00	29.683 
00:10	47.7	47.7	47.7	66	36.9	2	5	248	0.00	29.683 
00:15	47.9	47.9	47.9	67	37.5	2	5	248	0.00	29.671 
00:20	48.0	48.0	48.0	68	37.9	1	4	225	0.00	29.671 
00:25	48.3	48.3	48.3	68	38.2	2	5	248	0.00	29.671 
00:30	48.6	48.6	48.6	69	38.9	1	4	248	0.00	29.665 
00:35	48.8	48.8	48.8	69	39.1	1	5	248	0.00	29.665 
00:40	49.2	49.2	49.2	69	39.5	2	3	248	0.00	29.665 
00:45	49.4	49.4	49.4	70	40.0	1	4	248	0.00	29.662 
00:50	49.8	49.8	49.8	71	40.8	2	6	248	0.00	29.662 
00:55	50.1	50.1	50.1	71	41.1	2	5	248	0.00	29.662 
01:00	50.5	50.5	50.5	71	41.5	2	5	248	0.00	29.648 
01:05	51.0	51.0	51.0	71	41.9	4	11	270	0.00	29.648 
01:10	51.1	51.1	51.1	71	42.0	3	10	248	0.00	29.648 
01:15	51.3	51.3	51.3	71	42.2	3	10	248	0.00	29.638 
01:20	51.4	51.4	51.4	71	42.3	3	7	248	0.00	29.638 
01:25	51.3	51.3	51.3	71	42.2	2	5	248	0.00	29.638 
01:30	51.3	51.3	51.3	71	42.2	3	7	248	0.00	29.634 
01:35	51.3	51.3	51.3	72	42.6	2	5	248	0.00	29.634 
01:40	51.3	51.3	51.3	72	42.6	2	9	248	0.00	29.634 
01:45	51.1	51.1	51.1	72	42.4	1	4	248	0.00	29.639 
01:50	51.1	51.1	51.1	73	42.7	1	4	248	0.00	29.639 
01:55	51.0	51.0	51.0	73	42.7	1	5	292	0.00	29.639 
02:00	50.8	50.8	50.8	73	42.5	1	4	90	0.00	29.635 
02:05	50.8	50.8	50.8	73	42.5	1	5	270	0.00	29.635 
02:10	50.8	50.8	50.8	74	42.8	1	7	270	0.00	29.635 
02:15	50.8	50.8	50.8	74	42.8	1	2	135	0.00	29.633 
02:20	50.7	50.7	50.7	74	42.7	1	3	248	0.00	29.633 
02:25	50.8	50.8	50.8	74	42.8	2	5	248	0.00	29.633 
02:30	50.8	50.8	50.8	74	42.8	2	5	248	0.00	29.640 
02:35	51.0	51.0	51.0	74	43.0	2	5	225	0.00	29.640 
02:40	51.0	51.0	51.0	74	43.0	1	4	248	0.00	29.640 
02:45	51.0	51.0	51.0	74	43.0	1	3	248	0.00	29.638 
02:50	51.0	51.0	51.0	74	43.0	2	5	248	0.00	29.638 
02:55	51.0	51.0	51.0	75	43.4	1	5	248	0.00	29.638 
03:00	51.0	51.0	51.0	75	43.4	1	2	248	0.00	29.638 
03:05	50.8	50.8	50.8	76	43.5	1	2	248	0.00	29.638 
03:10	50.7	50.7	50.7	76	43.4	1	3	292	0.00	29.638 
03:15	50.5	50.5	50.5	77	43.6	0	2	270	0.00	29.630 
03:20	50.4	50.4	50.4	77	43.5	0	2	248	0.00	29.630 
03:25	50.2	50.2	50.2	77	43.3	0	3	248	0.00	29.630 
03:30	50.2	50.2	50.2	77	43.3	0	1	248	0.00	29.630 
03:35	50.2	50.2	50.2	77	43.3	0	2	248	0.00	29.630 
03:40	50.2	50.2	50.2	78	43.6	0	2	248	0.00	29.630 
03:45	50.2	50.2	50.2	78	43.6	0	1	248	0.00	29.628 
03:50	50.1	50.1	50.1	78	43.5	1	2	248	0.00	29.628 
03:55	50.2	50.2	50.2	78	43.6	1	2	202	0.00	29.628 
04:00	50.2	50.2	50.2	78	43.6	1	2	158	0.00	29.618 
04:05	50.2	50.2	50.2	78	43.6	1	2	135	0.00	29.618 
04:10	50.4	50.4	50.4	78	43.8	1	3	90	0.00	29.618 
04:15	50.4	50.4	50.4	79	44.1	0	2	90	0.00	29.615 
04:20	50.4	50.4	50.4	79	44.1	1	2	90	0.00	29.615 
04:25	50.4	50.4	50.4	79	44.1	1	3	90	0.00	29.615 
04:30	50.4	50.4	50.4	80	44.5	1	2	90	0.00	29.602 
04:35	50.5	50.5	50.5	80	44.6	1	4	112	0.00	29.602 
04:40	50.5	50.5	50.5	80	44.6	1	4	225	0.00	29.602 
04:45	50.7	50.7	50.7	80	44.8	1	3	90	0.00	29.593 
04:50	50.7	50.7	50.7	81	45.1	0	2	90	0.00	29.593 
04:55	50.7	50.7	50.7	81	45.1	1	2	90	0.00	29.593 
05:00	50.7	50.7	50.7	81	45.1	1	2	68	0.00	29.585 
05:05	50.8	50.8	50.8	81	45.2	0	2	68	0.00	29.585 
05:10	50.8	50.8	50.8	81	45.2	1	2	68	0.00	29.585 
05:15	50.8	50.8	50.8	81	45.2	1	4	158	0.00	29.583 
05:20	50.8	50.8	50.8	81	45.2	1	3	90	0.00	29.583 
05:25	51.0	51.0	51.0	81	45.4	2	5	90	0.00	29.583 
05:30	50.8	50.8	50.8	81	45.2	1	2	112	0.00	29.574 
05:35	50.8	50.8	50.8	81	45.2	2	4	90	0.00	29.574 
05:40	50.8	50.8	50.8	80	44.9	2	5	90	0.00	29.574 
05:45	51.0	51.0	51.0	80	45.0	2	3	90	0.00	29.568 
05:50	50.8	50.8	50.8	80	44.9	2	5	112	0.00	29.568 
05:55	50.8	50.8	50.8	79	44.5	2	4	112	0.00	29.568 
06:00	51.0	51.0	51.0	79	44.7	2	4	112	0.00	29.569 
06:05	51.0	51.0	51.0	78	44.4	2	5	90	0.00	29.569 
06:10	51.1	51.1	51.1	77	44.1	3	5	112	0.00	29.569 
06:15	51.3	51.3	51.3	77	44.3	2	4	112	0.00	29.573 
06:20	51.3	51.3	51.3	77	44.3	2	5	112	0.00	29.573 
06:25	51.4	51.4	51.4	76	44.1	3	7	112	0.00	29.573 
06:30	51.6	51.6	51.6	75	43.9	2	5	90	0.00	29.560 
06:35	51.7	51.7	51.7	75	44.0	2	5	90	0.00	29.560 
06:40	51.9	51.9	51.9	74	43.9	2	4	90	0.00	29.560 
06:45	51.9	51.9	51.9	74	43.9	2	4	112	0.00	29.555 
06:50	51.7	51.7	51.7	75	44.0	2	6	112	0.00	29.555 
06:55	51.4	51.4	51.4	75	43.7	1	5	112	0.00	29.555 
07:00	51.3	51.3	51.3	75	43.6	2	6	90	0.00	29.556 
07:05	51.1	51.1	51.1	75	43.5	2	6	90	0.00	29.556 
07:10	50.8	50.8	50.8	76	43.5	2	4	90	0.00	29.556 
07:15	50.7	50.7	50.7	77	43.8	2	6	112	0.00	29.560 
07:20	50.4	50.4	50.4	78	43.8	2	4	90	0.01	29.560 
07:25	50.1	50.1	50.1	80	44.2	2	4	90	0.00	29.560 
07:30	49.8	49.8	49.8	81	44.2	3	7	90	0.01	29.562 
07:35	49.5	49.5	49.5	83	44.6	3	7	90	0.01	29.562 
07:40	49.2	49.2	49.2	84	44.6	2	4	112	0.01	29.562 
07:45	48.9	48.9	48.9	86	44.9	2	4	112	0.00	29.548 
07:50	48.6	48.6	48.6	87	44.9	2	6	90	0.00	29.548 
07:55	48.5	48.5	48.5	88	45.1	2	6	90	0.00	29.548 
08:00	48.3	48.3	48.3	88	44.9	2	5	90	0.00	29.567 
08:05	48.3	48.3	48.3	88	44.9	3	10	90	0.01	29.567 
08:10	48.2	48.2	48.2	89	45.1	3	7	90	0.01	29.567 
08:15	48.2	48.2	48.2	89	45.1	2	4	112	0.01	29.564 
08:20	48.0	48.0	48.0	90	45.2	2	9	112	0.01	29.564 
08:25	47.9	47.9	47.9	90	45.1	3	7	112	0.01	29.564 
08:30	47.7	47.7	47.7	91	45.2	2	6	112	0.01	29.554 
08:35	47.7	47.7	47.7	91	45.2	1	4	135	0.01	29.554 
08:40	47.6	47.6	47.6	91	45.1	2	4	112	0.01	29.554 
08:45	47.6	47.6	47.6	92	45.4	1	3	112	0.01	29.535 
08:50	47.4	47.4	47.4	92	45.2	1	3	112	0.00	29.535 
08:55	47.4	47.4	47.4	92	45.2	1	3	112	0.01	29.535 
09:00	47.4	47.4	47.4	92	45.2	1	2	158	0.00	29.529 
09:05	47.3	47.3	47.3	92	45.1	1	3	135	0.00	29.529 
09:10	47.3	47.3	47.3	92	45.1	2	4	135	0.01	29.529 
09:15	47.3	47.3	47.3	92	45.1	2	5	135	0.00	29.530 
09:20	47.3	47.3	47.3	92	45.1	2	6	112	0.01	29.530 
09:25	47.3	47.3	47.3	92	45.1	2	5	90	0.01	29.530 
09:30	47.3	47.3	47.3	92	45.1	2	5	90	0.02	29.533 
09:35	47.3	47.3	47.3	92	45.1	3	10	90	0.01	29.533 
09:40	47.3	47.3	47.3	92	45.1	3	6	90	0.01	29.533 
09:45	47.4	47.4	47.4	92	45.2	3	5	90	0.01	29.527 
09:50	47.4	47.4	47.4	92	45.2	3	9	90	0.01	29.527 
09:55	47.7	47.7	47.7	92	45.5	3	7	90	0.01	29.527 
10:00	47.9	46.4	47.9	92	45.7	4	11	90	0.00	29.518 
10:05	48.2	48.2	48.2	92	46.0	3	9	90	0.00	29.518 
10:10	48.3	46.9	48.3	92	46.1	4	9	90	0.01	29.518 
10:15	48.5	48.5	48.5	91	46.0	3	6	90	0.00	29.511 
10:20	48.5	48.5	48.5	88	45.1	3	7	90	0.01	29.511 
10:25	48.6	46.6	48.6	91	46.1	5	14	90	0.00	29.511 
10:30	48.6	48.6	48.6	91	46.1	2	5	68	0.01	29.508 
10:35	48.6	48.6	48.6	91	46.1	3	9	90	0.01	29.508 
10:40	48.6	48.6	48.6	91	46.1	3	9	90	0.00	29.508 
10:45	48.6	48.6	48.6	91	46.1	2	4	90	0.00	29.492 
10:50	48.6	48.6	48.6	91	46.1	2	4	90	0.01	29.492 
10:55	48.6	48.6	48.6	91	46.1	2	5	68	0.00	29.492 
11:00	48.6	48.6	48.6	91	46.1	2	5	90	0.00	29.479 
11:05	48.8	48.8	48.8	92	46.6	2	5	112	0.01	29.479 
11:10	48.8	48.8	48.8	92	46.6	3	6	90	0.00	29.479 
11:15	48.9	48.9	48.9	91	46.4	3	6	90	0.01	29.476 
11:20	49.1	49.1	49.1	92	46.9	2	7	90	0.00	29.476 
11:25	49.1	49.1	49.1	92	46.9	2	6	90	0.01	29.476 
11:30	49.1	49.1	49.1	92	46.9	3	8	90	0.01	29.473 
11:35	48.9	48.9	48.9	92	46.7	3	7	112	0.01	29.473 
11:40	48.9	48.9	48.9	92	46.7	3	10	112	0.00	29.473 
11:45	48.9	48.9	48.9	92	46.7	2	10	112	0.01	29.458 
11:50	48.9	48.9	48.9	92	46.7	3	7	90	0.00	29.458 
11:55	48.9	48.9	48.9	92	46.7	3	6	90	0.01	29.458 
12:00	48.8	48.8	48.8	92	46.6	3	7	90	0.00	29.440 
12:05	48.8	48.8	48.8	92	46.6	2	5	90	0.00	29.440 
12:10	48.8	48.8	48.8	92	46.6	3	9	112	0.00	29.440 
12:15	48.9	48.9	48.9	92	46.7	3	6	90	0.00	29.422 
12:20	48.9	48.9	48.9	92	46.7	3	9	112	0.01	29.422 
12:25	49.1	49.1	49.1	92	46.9	3	7	90	0.00	29.422 
12:30	49.1	49.1	49.1	92	46.9	3	6	90	0.01	29.406 
12:35	49.2	49.2	49.2	92	47.0	3	7	90	0.00	29.406 
12:40	49.4	49.4	49.4	92	47.2	2	6	90	0.00	29.406 
12:45	49.4	49.4	49.4	92	47.2	2	5	90	0.00	29.397 
12:50	49.4	49.4	49.4	92	47.2	3	9	68	0.00	29.397 
12:55	49.5	49.5	49.5	92	47.3	2	7	315	0.00	29.397 
13:00	49.5	49.5	49.5	92	47.3	2	5	90	0.00	29.392 
13:05	49.6	49.6	49.6	92	47.4	3	8	90	0.00	29.392 
13:10	49.6	49.6	49.6	92	47.4	2	6	90	0.00	29.392 
13:15	49.8	49.8	49.8	92	47.6	2	5	90	0.00	29.390 
13:20	49.8	49.8	49.8	92	47.6	3	6	90	0.00	29.390 
13:25	49.8	49.8	49.8	92	47.6	2	9	68	0.00	29.390 
13:30	49.8	49.8	49.8	92	47.6	2	7	112	0.00	29.383 
13:35	49.8	49.8	49.8	92	47.6	2	6	248	0.00	29.383 
13:40	49.8	49.8	49.8	92	47.6	1	4	248	0.00	29.383 
13:45	49.9	49.9	49.9	92	47.7	2	4	315	0.00	29.377 
13:50	49.9	49.9	49.9	92	47.7	2	6	248	0.00	29.377 
13:55	50.1	50.1	50.1	92	47.9	3	9	270	0.00	29.377 
14:00	50.2	50.2	50.2	92	48.0	2	5	270	0.00	29.381 
14:05	50.2	50.2	50.2	92	48.0	3	8	248	0.01	29.381 
14:10	50.4	50.4	50.4	92	48.2	3	7	248	0.00	29.381 
14:15	50.5	50.5	50.5	92	48.3	2	6	270	0.00	29.385 
14:20	50.5	50.5	50.5	92	48.3	2	8	270	0.00	29.385 
14:25	50.7	50.7	50.7	92	48.5	2	5	248	0.00	29.385 
14:30	50.7	50.7	50.7	92	48.5	3	9	248	0.00	29.387 
14:35	50.8	50.8	50.8	91	48.3	3	10	248	0.00	29.387 
14:40	51.0	51.0	51.0	92	48.8	3	8	248	0.00	29.387 
14:45	51.0	51.0	51.0	92	48.8	3	9	248	0.00	29.392 
14:50	51.0	51.0	51.0	92	48.8	2	5	248	0.00	29.392 
14:55	50.8	50.8	50.8	92	48.6	3	6	248	0.00	29.392 
15:00	50.8	50.8	50.8	92	48.6	2	6	248	0.01	29.390 
15:05	50.8	50.8	50.8	92	48.6	3	6	248	0.00	29.390 
15:10	50.8	50.8	50.8	92	48.6	1	5	248	0.00	29.390 
15:15	50.8	50.8	50.8	92	48.6	1	4	248	0.00	29.388 
15:20	50.7	50.7	50.7	92	48.5	1	4	248	0.00	29.388 
15:25	50.7	50.7	50.7	92	48.5	2	4	248	0.00	29.388 
15:30	50.5	50.5	50.5	92	48.3	1	4	225	0.00	29.383 
15:35	50.5	50.5	50.5	92	48.3	1	5	248	0.00	29.383 
15:40	50.4	50.4	50.4	92	48.2	1	5	248	0.01	29.383 
15:45	50.4	50.4	50.4	93	48.5	2	4	248	0.01	29.382 
15:50	50.4	50.4	50.4	93	48.5	2	4	248	0.01	29.382 
15:55	50.2	50.2	50.2	93	48.3	2	4	248	0.01	29.382 
16:00	50.2	50.2	50.2	93	48.3	2	4	248	0.00	29.382 
16:05	50.1	50.1	50.1	93	48.2	2	7	248	0.01	29.382 
16:10	50.1	50.1	50.1	93	48.2	1	4	225	0.00	29.382 
16:15	50.1	50.1	50.1	93	48.2	2	5	270	0.00	29.380 
16:20	50.1	50.1	50.1	93	48.2	2	4	22	0.00	29.380 
16:25	50.1	50.1	50.1	93	48.2	2	7	248	0.01	29.380 
16:30	50.1	50.1	50.1	92	47.9	2	6	90	0.00	29.382 
16:35	50.1	50.1	50.1	92	47.9	2	11	292	0.00	29.382 
16:40	50.1	50.1	50.1	92	47.9	2	10	270	0.00	29.382 
16:45	50.1	50.1	50.1	91	47.6	3	9	22	0.00	29.381 
16:50	50.1	50.1	50.1	91	47.6	2	4	270	0.00	29.381 
16:55	50.1	50.1	50.1	91	47.6	3	10	68	0.00	29.381 
17:00	50.1	50.1	50.1	91	47.6	2	6	248	0.00	29.381 
17:05	50.1	50.1	50.1	91	47.6	2	5	270	0.00	29.381 
17:10	49.9	49.9	49.9	91	47.4	2	5	248	0.00	29.381 
17:15	49.9	49.9	49.9	91	47.4	1	4	0	0.00	29.384 
17:20	49.9	49.9	49.9	91	47.4	2	8	292	0.00	29.384 
17:25	49.9	49.9	49.9	91	47.4	2	5	248	0.00	29.384 
17:30	49.9	49.9	49.9	91	47.4	3	9	248	0.00	29.393 
17:35	49.8	49.8	49.8	91	47.3	2	5	292	0.00	29.393 
17:40	49.8	49.8	49.8	91	47.3	2	6	248	0.00	29.393 
17:45	49.6	49.6	49.6	91	47.1	2	8	270	0.00	29.386 
17:50	49.6	48.4	49.6	91	47.1	4	12	248	0.02	29.386 
17:55	49.1	47.8	49.1	90	46.3	4	12	270	0.00	29.386 
18:00	48.5	48.5	48.5	91	46.0	2	4	270	0.01	29.397 
18:05	47.7	47.7	47.7	91	45.2	2	5	270	0.01	29.397 
18:10	47.3	47.3	47.3	91	44.8	2	6	315	0.00	29.397 
18:15	46.8	46.8	46.8	91	44.3	2	6	315	0.00	29.402 
18:20	46.5	46.5	46.5	92	44.3	2	4	315	0.00	29.402 
18:25	46.4	46.4	46.4	92	44.2	2	7	315	0.01	29.402 
18:30	46.2	46.2	46.2	92	44.0	2	5	338	0.01	29.401 
18:35	46.0	46.0	46.0	92	43.8	3	7	315	0.00	29.401 
18:40	45.8	45.8	45.8	92	43.6	3	7	338	0.00	29.401 
18:45	45.7	45.7	45.7	92	43.5	3	5	338	0.01	29.405 
18:50	45.4	45.4	45.4	91	42.9	3	6	315	0.00	29.405 
18:55	45.4	45.4	45.4	91	42.9	3	7	338	0.00	29.405 
19:00	45.2	45.2	45.2	91	42.7	3	9	338	0.00	29.417 
19:05	45.1	45.1	45.1	91	42.6	3	7	315	0.00	29.417 
19:10	45.1	43.2	45.1	91	42.6	4	9	315	0.00	29.417 
19:15	44.9	44.9	44.9	91	42.4	3	11	292	0.00	29.432 
19:20	44.6	44.6	44.6	90	41.9	3	7	315	0.00	29.432 
19:25	44.5	44.5	44.5	90	41.8	3	9	315	0.00	29.432 
19:30	44.2	44.2	44.2	89	41.2	3	9	315	0.00	29.438 
19:35	44.1	42.1	44.1	89	41.1	4	9	292	0.00	29.438 
19:40	43.8	41.7	43.8	89	40.8	4	10	292	0.00	29.438 
19:45	43.2	43.2	43.2	88	39.9	3	10	315	0.00	29.452 
19:50	42.6	40.3	42.6	88	39.3	4	11	292	0.00	29.452 
19:55	42.1	39.7	42.1	86	38.2	4	11	338	0.00	29.452 
20:00	41.5	41.5	41.5	88	38.2	3	10	338	0.01	29.464 
20:05	40.8	38.2	40.8	87	37.2	4	10	338	0.00	29.464 
20:10	40.1	37.4	40.1	85	36.0	4	10	338	0.00	29.464 
20:15	39.2	35.5	39.2	86	35.4	5	12	338	0.00	29.474 
20:20	38.5	34.7	38.5	87	35.0	5	13	338	0.01	29.474 
20:25	37.8	33.9	37.8	87	34.3	5	14	315	0.01	29.474 
20:30	36.8	32.7	36.8	87	33.3	5	15	315	0.01	29.489 
20:35	35.9	32.6	35.9	88	32.7	4	14	338	0.00	29.489 
20:40	35.2	35.2	35.2	89	32.3	3	7	338	0.01	29.489 
20:45	34.6	34.6	34.6	90	32.0	3	9	315	0.00	29.494 
20:50	34.4	34.4	34.4	91	32.0	3	11	0	0.01	29.494 
20:55	34.6	31.1	34.6	91	32.2	4	8	292	0.00	29.494 
21:00	34.9	34.9	34.9	91	32.5	3	10	292	0.00	29.495 
21:05	35.0	30.6	35.0	90	32.4	5	14	315	0.01	29.495 
21:10	35.0	31.5	35.0	90	32.4	4	9	0	0.00	29.495 
21:15	35.0	31.5	35.0	90	32.4	4	14	315	0.00	29.505 
21:20	35.0	31.5	35.0	90	32.4	4	11	315	0.00	29.505 
21:25	35.0	31.5	35.0	90	32.4	4	11	315	0.00	29.505 
21:30	34.9	34.9	34.9	90	32.3	2	6	338	0.01	29.509 
21:35	35.0	31.5	35.0	90	32.4	4	13	0	0.00	29.509 
21:40	35.0	31.5	35.0	90	32.4	4	15	338	0.00	29.509 
21:45	35.0	31.5	35.0	90	32.4	4	13	292	0.00	29.524 
21:50	35.0	35.0	35.0	90	32.4	3	6	315	0.00	29.524 
21:55	34.9	31.4	34.9	89	32.0	4	15	315	0.00	29.524 
22:00	34.9	34.9	34.9	89	32.0	3	10	0	0.00	29.528 
22:05	34.7	34.7	34.7	90	32.1	3	10	315	0.00	29.528 
22:10	34.7	31.2	34.7	89	31.8	4	13	315	0.00	29.528 
22:15	34.7	31.2	34.7	89	31.8	4	10	315	0.01	29.531 
22:20	34.7	31.2	34.7	89	31.8	4	10	315	0.00	29.531 
22:25	34.9	34.9	34.9	89	32.0	3	10	315	0.00	29.531 
22:30	34.9	31.4	34.9	89	32.0	4	11	338	0.00	29.535 
22:35	34.9	34.9	34.9	89	32.0	3	10	0	0.00	29.535 
22:40	34.9	31.4	34.9	88	31.7	4	12	338	0.00	29.535 
22:45	34.9	34.9	34.9	88	31.7	3	11	292	0.00	29.543 
22:50	34.9	34.9	34.9	88	31.7	3	10	315	0.00	29.543 
22:55	34.9	34.9	34.9	88	31.7	3	12	315	0.00	29.543 
23:00	34.9	31.4	34.9	88	31.7	4	12	315	0.00	29.554 
23:05	34.9	34.9	34.9	88	31.7	3	7	338	0.00	29.554 
23:10	34.9	31.4	34.9	87	31.4	4	10	338	0.00	29.554 
23:15	34.9	34.9	34.9	87	31.4	3	10	315	0.00	29.562 
23:20	34.9	34.9	34.9	87	31.4	3	9	315	0.00	29.562 
23:25	34.9	31.4	34.9	87	31.4	4	11	315	0.00	29.562 
23:30	34.9	34.9	34.9	88	31.7	3	7	292	0.00	29.568 
23:35	34.7	34.7	34.7	88	31.5	2	9	338	0.00	29.568 
23:40	34.7	34.7	34.7	88	31.5	3	9	338	0.00	29.568 
23:45	34.7	34.7	34.7	88	31.5	3	7	315	0.00	29.572 
23:50	34.7	34.7	34.7	88	31.5	2	6	338	0.00	29.572 
23:55	34.7	34.7	34.7	87	31.2	3	10	292	0.00	29.572 

CoCoRaHS
IN-AL-39
A2 Web Hosting
Creative Commons License
GoDaddy
Look for:

loaded 2017-10-19 12:23:54 • last modified 2010-11-18 10:43:29
Privacy PolicyDisclaimer
• wx.awcolley.com is powered by PmWiki v.2002016 •
• all content (unless otherwise noted) © 2017 A W Colley